sensor_id;sensor_type;location;lat;lon;timestamp;P1;durP1;ratioP1;P2;durP2;ratioP2
15340;SDS011;7770;52.158;5.372;2023-07-31T00:00:03;4.20;;;3.50;;
15340;SDS011;7770;52.158;5.372;2023-07-31T00:02:52;4.00;;;3.60;;
15340;SDS011;7770;52.158;5.372;2023-07-31T00:05:38;4.67;;;3.80;;
15340;SDS011;7770;52.158;5.372;2023-07-31T00:08:24;4.10;;;3.70;;
15340;SDS011;7770;52.158;5.372;2023-07-31T00:11:10;5.57;;;3.40;;
15340;SDS011;7770;52.158;5.372;2023-07-31T00:13:56;3.83;;;3.10;;
15340;SDS011;7770;52.158;5.372;2023-07-31T00:16:43;4.53;;;3.13;;
15340;SDS011;7770;52.158;5.372;2023-07-31T00:19:29;4.87;;;3.90;;
15340;SDS011;7770;52.158;5.372;2023-07-31T00:22:15;4.60;;;4.00;;
15340;SDS011;7770;52.158;5.372;2023-07-31T00:25:01;4.70;;;4.27;;
15340;SDS011;7770;52.158;5.372;2023-07-31T00:27:47;7.67;;;5.33;;
15340;SDS011;7770;52.158;5.372;2023-07-31T00:30:33;6.40;;;5.73;;
15340;SDS011;7770;52.158;5.372;2023-07-31T00:33:19;6.70;;;6.00;;
15340;SDS011;7770;52.158;5.372;2023-07-31T00:36:05;7.67;;;6.60;;
15340;SDS011;7770;52.158;5.372;2023-07-31T00:38:51;8.20;;;6.83;;
15340;SDS011;7770;52.158;5.372;2023-07-31T00:41:37;10.50;;;7.63;;
15340;SDS011;7770;52.158;5.372;2023-07-31T00:44:23;11.33;;;8.73;;
15340;SDS011;7770;52.158;5.372;2023-07-31T00:47:09;12.53;;;9.03;;
15340;SDS011;7770;52.158;5.372;2023-07-31T00:49:55;12.83;;;9.03;;
15340;SDS011;7770;52.158;5.372;2023-07-31T00:52:41;17.77;;;9.40;;
15340;SDS011;7770;52.158;5.372;2023-07-31T00:55:27;14.50;;;9.93;;
15340;SDS011;7770;52.158;5.372;2023-07-31T00:58:13;29.17;;;11.73;;
15340;SDS011;7770;52.158;5.372;2023-07-31T01:00:59;33.33;;;12.60;;
15340;SDS011;7770;52.158;5.372;2023-07-31T01:03:45;29.83;;;12.67;;
15340;SDS011;7770;52.158;5.372;2023-07-31T01:06:44;25.57;;;13.60;;
15340;SDS011;7770;52.158;5.372;2023-07-31T01:09:57;32.33;;;14.50;;
15340;SDS011;7770;52.158;5.372;2023-07-31T01:13:05;26.27;;;14.17;;
15340;SDS011;7770;52.158;5.372;2023-07-31T01:15:52;17.67;;;10.90;;
15340;SDS011;7770;52.158;5.372;2023-07-31T01:18:38;17.13;;;9.60;;
15340;SDS011;7770;52.158;5.372;2023-07-31T01:27:52;10.83;;;7.80;;
15340;SDS011;7770;52.158;5.372;2023-07-31T01:30:46;10.63;;;7.73;;
15340;SDS011;7770;52.158;5.372;2023-07-31T01:33:34;10.43;;;6.67;;
15340;SDS011;7770;52.158;5.372;2023-07-31T01:36:21;11.77;;;6.60;;
15340;SDS011;7770;52.158;5.372;2023-07-31T01:39:08;7.57;;;5.37;;
15340;SDS011;7770;52.158;5.372;2023-07-31T01:41:54;7.23;;;4.47;;
15340;SDS011;7770;52.158;5.372;2023-07-31T01:44:40;7.27;;;4.90;;
15340;SDS011;7770;52.158;5.372;2023-07-31T01:47:26;8.10;;;6.00;;
15340;SDS011;7770;52.158;5.372;2023-07-31T01:50:12;11.03;;;5.73;;
15340;SDS011;7770;52.158;5.372;2023-07-31T01:52:58;10.47;;;6.80;;
15340;SDS011;7770;52.158;5.372;2023-07-31T01:55:44;18.17;;;8.27;;
15340;SDS011;7770;52.158;5.372;2023-07-31T01:58:30;24.23;;;11.33;;
15340;SDS011;7770;52.158;5.372;2023-07-31T02:01:16;23.70;;;12.63;;
15340;SDS011;7770;52.158;5.372;2023-07-31T02:04:02;29.00;;;13.60;;
15340;SDS011;7770;52.158;5.372;2023-07-31T02:06:50;25.07;;;13.33;;
15340;SDS011;7770;52.158;5.372;2023-07-31T02:09:36;27.57;;;12.90;;
15340;SDS011;7770;52.158;5.372;2023-07-31T02:12:22;35.17;;;14.37;;
15340;SDS011;7770;52.158;5.372;2023-07-31T02:15:08;26.73;;;12.60;;
15340;SDS011;7770;52.158;5.372;2023-07-31T02:17:54;31.27;;;12.23;;
15340;SDS011;7770;52.158;5.372;2023-07-31T02:20:40;26.57;;;12.47;;
15340;SDS011;7770;52.158;5.372;2023-07-31T02:23:26;31.20;;;12.90;;
15340;SDS011;7770;52.158;5.372;2023-07-31T02:26:12;27.73;;;13.23;;
15340;SDS011;7770;52.158;5.372;2023-07-31T02:28:58;26.70;;;11.77;;
15340;SDS011;7770;52.158;5.372;2023-07-31T02:31:44;26.00;;;13.03;;
15340;SDS011;7770;52.158;5.372;2023-07-31T02:34:30;28.37;;;12.80;;
15340;SDS011;7770;52.158;5.372;2023-07-31T02:37:16;27.23;;;13.07;;
15340;SDS011;7770;52.158;5.372;2023-07-31T02:40:02;27.20;;;12.93;;
15340;SDS011;7770;52.158;5.372;2023-07-31T02:42:49;29.37;;;13.13;;
15340;SDS011;7770;52.158;5.372;2023-07-31T02:45:35;28.47;;;13.40;;
15340;SDS011;7770;52.158;5.372;2023-07-31T02:48:21;27.57;;;12.70;;
15340;SDS011;7770;52.158;5.372;2023-07-31T02:51:07;27.60;;;11.93;;
15340;SDS011;7770;52.158;5.372;2023-07-31T02:53:53;27.07;;;12.33;;
15340;SDS011;7770;52.158;5.372;2023-07-31T02:56:39;27.00;;;12.47;;
15340;SDS011;7770;52.158;5.372;2023-07-31T02:59:25;28.73;;;12.93;;
15340;SDS011;7770;52.158;5.372;2023-07-31T03:02:13;28.63;;;12.63;;
15340;SDS011;7770;52.158;5.372;2023-07-31T03:04:59;29.87;;;12.17;;
15340;SDS011;7770;52.158;5.372;2023-07-31T03:07:45;34.00;;;13.80;;
15340;SDS011;7770;52.158;5.372;2023-07-31T03:10:31;31.87;;;13.77;;
15340;SDS011;7770;52.158;5.372;2023-07-31T03:13:17;37.20;;;14.00;;
15340;SDS011;7770;52.158;5.372;2023-07-31T03:16:03;32.60;;;14.20;;
15340;SDS011;7770;52.158;5.372;2023-07-31T03:18:49;32.50;;;13.57;;
15340;SDS011;7770;52.158;5.372;2023-07-31T03:21:35;29.93;;;12.97;;
15340;SDS011;7770;52.158;5.372;2023-07-31T03:24:21;31.90;;;13.20;;
15340;SDS011;7770;52.158;5.372;2023-07-31T03:27:07;31.83;;;13.27;;
15340;SDS011;7770;52.158;5.372;2023-07-31T03:29:53;32.17;;;14.13;;
15340;SDS011;7770;52.158;5.372;2023-07-31T03:32:39;29.87;;;14.80;;
15340;SDS011;7770;52.158;5.372;2023-07-31T03:35:25;29.97;;;14.40;;
15340;SDS011;7770;52.158;5.372;2023-07-31T03:38:11;31.73;;;14.73;;
15340;SDS011;7770;52.158;5.372;2023-07-31T03:40:57;32.93;;;15.13;;
15340;SDS011;7770;52.158;5.372;2023-07-31T03:43:46;36.17;;;15.17;;
15340;SDS011;7770;52.158;5.372;2023-07-31T03:46:37;29.60;;;14.70;;
15340;SDS011;7770;52.158;5.372;2023-07-31T03:49:23;32.97;;;14.27;;
15340;SDS011;7770;52.158;5.372;2023-07-31T03:52:09;27.80;;;14.53;;
15340;SDS011;7770;52.158;5.372;2023-07-31T03:54:55;31.93;;;14.73;;
15340;SDS011;7770;52.158;5.372;2023-07-31T03:57:42;34.20;;;14.43;;
15340;SDS011;7770;52.158;5.372;2023-07-31T04:00:28;25.57;;;13.43;;
15340;SDS011;7770;52.158;5.372;2023-07-31T04:03:14;26.03;;;13.87;;
15340;SDS011;7770;52.158;5.372;2023-07-31T04:06:00;31.33;;;13.57;;
15340;SDS011;7770;52.158;5.372;2023-07-31T04:08:46;27.43;;;14.40;;
15340;SDS011;7770;52.158;5.372;2023-07-31T04:11:32;27.23;;;14.03;;
15340;SDS011;7770;52.158;5.372;2023-07-31T04:14:18;29.10;;;12.90;;
15340;SDS011;7770;52.158;5.372;2023-07-31T04:17:04;34.33;;;14.50;;
15340;SDS011;7770;52.158;5.372;2023-07-31T04:19:50;32.47;;;14.40;;
15340;SDS011;7770;52.158;5.372;2023-07-31T04:22:36;27.90;;;14.20;;
15340;SDS011;7770;52.158;5.372;2023-07-31T04:25:22;27.70;;;14.17;;
15340;SDS011;7770;52.158;5.372;2023-07-31T04:28:08;27.20;;;14.03;;
15340;SDS011;7770;52.158;5.372;2023-07-31T04:30:54;30.70;;;14.20;;
15340;SDS011;7770;52.158;5.372;2023-07-31T04:33:40;28.27;;;14.43;;
15340;SDS011;7770;52.158;5.372;2023-07-31T04:36:26;26.53;;;13.53;;
15340;SDS011;7770;52.158;5.372;2023-07-31T04:39:12;22.60;;;13.90;;
15340;SDS011;7770;52.158;5.372;2023-07-31T04:41:58;25.10;;;13.60;;
15340;SDS011;7770;52.158;5.372;2023-07-31T04:44:44;28.97;;;13.83;;
15340;SDS011;7770;52.158;5.372;2023-07-31T04:47:30;24.53;;;13.43;;
15340;SDS011;7770;52.158;5.372;2023-07-31T04:50:16;24.23;;;12.67;;
15340;SDS011;7770;52.158;5.372;2023-07-31T04:53:02;22.93;;;12.97;;
15340;SDS011;7770;52.158;5.372;2023-07-31T04:55:48;24.43;;;13.23;;
15340;SDS011;7770;52.158;5.372;2023-07-31T04:58:34;19.10;;;13.07;;
15340;SDS011;7770;52.158;5.372;2023-07-31T05:01:20;29.10;;;13.77;;
15340;SDS011;7770;52.158;5.372;2023-07-31T05:04:06;24.67;;;13.17;;
15340;SDS011;7770;52.158;5.372;2023-07-31T05:06:52;24.13;;;12.87;;
15340;SDS011;7770;52.158;5.372;2023-07-31T05:09:38;23.43;;;12.53;;
15340;SDS011;7770;52.158;5.372;2023-07-31T05:12:24;23.13;;;12.60;;
15340;SDS011;7770;52.158;5.372;2023-07-31T05:15:10;24.07;;;12.70;;
15340;SDS011;7770;52.158;5.372;2023-07-31T05:17:56;20.53;;;13.23;;
15340;SDS011;7770;52.158;5.372;2023-07-31T05:20:42;20.00;;;11.80;;
15340;SDS011;7770;52.158;5.372;2023-07-31T05:23:28;19.70;;;11.03;;
15340;SDS011;7770;52.158;5.372;2023-07-31T05:26:16;20.03;;;10.60;;
15340;SDS011;7770;52.158;5.372;2023-07-31T05:29:03;15.60;;;9.57;;
15340;SDS011;7770;52.158;5.372;2023-07-31T05:31:49;18.87;;;10.33;;
15340;SDS011;7770;52.158;5.372;2023-07-31T05:34:35;18.53;;;11.17;;
15340;SDS011;7770;52.158;5.372;2023-07-31T05:37:21;16.20;;;10.17;;
15340;SDS011;7770;52.158;5.372;2023-07-31T05:40:07;19.57;;;10.57;;
15340;SDS011;7770;52.158;5.372;2023-07-31T05:42:54;15.70;;;9.37;;
15340;SDS011;7770;52.158;5.372;2023-07-31T05:45:42;12.90;;;8.30;;
15340;SDS011;7770;52.158;5.372;2023-07-31T05:48:28;10.67;;;8.03;;
15340;SDS011;7770;52.158;5.372;2023-07-31T05:51:14;13.50;;;8.37;;
15340;SDS011;7770;52.158;5.372;2023-07-31T05:54:00;11.73;;;8.13;;
15340;SDS011;7770;52.158;5.372;2023-07-31T05:56:46;12.53;;;8.30;;
15340;SDS011;7770;52.158;5.372;2023-07-31T05:59:32;14.60;;;9.50;;
15340;SDS011;7770;52.158;5.372;2023-07-31T06:02:18;14.17;;;10.40;;
15340;SDS011;7770;52.158;5.372;2023-07-31T06:05:04;17.70;;;10.93;;
15340;SDS011;7770;52.158;5.372;2023-07-31T06:07:51;16.67;;;11.10;;
15340;SDS011;7770;52.158;5.372;2023-07-31T06:10:37;17.50;;;10.93;;
15340;SDS011;7770;52.158;5.372;2023-07-31T06:13:23;16.10;;;11.40;;
15340;SDS011;7770;52.158;5.372;2023-07-31T06:16:09;17.07;;;11.63;;
15340;SDS011;7770;52.158;5.372;2023-07-31T06:18:56;14.40;;;10.60;;
15340;SDS011;7770;52.158;5.372;2023-07-31T06:21:42;13.93;;;10.70;;
15340;SDS011;7770;52.158;5.372;2023-07-31T06:24:29;15.50;;;10.50;;
15340;SDS011;7770;52.158;5.372;2023-07-31T06:27:15;16.07;;;11.03;;
15340;SDS011;7770;52.158;5.372;2023-07-31T06:30:01;12.60;;;10.67;;
15340;SDS011;7770;52.158;5.372;2023-07-31T06:32:47;12.33;;;10.10;;
15340;SDS011;7770;52.158;5.372;2023-07-31T06:35:33;12.10;;;9.97;;
15340;SDS011;7770;52.158;5.372;2023-07-31T06:38:22;12.17;;;9.80;;
15340;SDS011;7770;52.158;5.372;2023-07-31T06:41:11;15.47;;;10.10;;
15340;SDS011;7770;52.158;5.372;2023-07-31T06:43:57;11.77;;;9.30;;
15340;SDS011;7770;52.158;5.372;2023-07-31T06:46:43;12.17;;;9.77;;
15340;SDS011;7770;52.158;5.372;2023-07-31T06:49:29;12.47;;;9.10;;
15340;SDS011;7770;52.158;5.372;2023-07-31T06:52:15;11.67;;;8.63;;
15340;SDS011;7770;52.158;5.372;2023-07-31T06:55:02;9.40;;;8.40;;
15340;SDS011;7770;52.158;5.372;2023-07-31T06:58:00;8.50;;;7.50;;
15340;SDS011;7770;52.158;5.372;2023-07-31T07:00:46;8.67;;;7.40;;
15340;SDS011;7770;52.158;5.372;2023-07-31T07:03:34;8.87;;;7.30;;
15340;SDS011;7770;52.158;5.372;2023-07-31T07:06:21;10.43;;;7.70;;
15340;SDS011;7770;52.158;5.372;2023-07-31T07:09:08;9.43;;;7.40;;
15340;SDS011;7770;52.158;5.372;2023-07-31T07:11:54;8.80;;;7.57;;
15340;SDS011;7770;52.158;5.372;2023-07-31T07:14:40;9.00;;;7.30;;
15340;SDS011;7770;52.158;5.372;2023-07-31T07:17:27;9.60;;;7.40;;
15340;SDS011;7770;52.158;5.372;2023-07-31T07:20:16;10.43;;;7.93;;
15340;SDS011;7770;52.158;5.372;2023-07-31T07:23:02;8.57;;;7.57;;
15340;SDS011;7770;52.158;5.372;2023-07-31T07:25:48;9.40;;;7.50;;
15340;SDS011;7770;52.158;5.372;2023-07-31T07:28:34;8.47;;;7.23;;
15340;SDS011;7770;52.158;5.372;2023-07-31T07:31:22;8.27;;;7.37;;
15340;SDS011;7770;52.158;5.372;2023-07-31T07:34:08;7.83;;;7.03;;
15340;SDS011;7770;52.158;5.372;2023-07-31T07:36:54;9.80;;;7.23;;
15340;SDS011;7770;52.158;5.372;2023-07-31T07:39:40;8.80;;;7.23;;
15340;SDS011;7770;52.158;5.372;2023-07-31T07:42:27;8.77;;;7.33;;
15340;SDS011;7770;52.158;5.372;2023-07-31T07:45:13;8.83;;;7.23;;
15340;SDS011;7770;52.158;5.372;2023-07-31T07:47:59;8.13;;;6.90;;
15340;SDS011;7770;52.158;5.372;2023-07-31T07:50:45;8.33;;;6.27;;
15340;SDS011;7770;52.158;5.372;2023-07-31T07:53:31;7.50;;;6.80;;
15340;SDS011;7770;52.158;5.372;2023-07-31T07:56:17;7.40;;;6.33;;
15340;SDS011;7770;52.158;5.372;2023-07-31T07:59:03;7.03;;;6.27;;
15340;SDS011;7770;52.158;5.372;2023-07-31T08:01:49;8.53;;;6.80;;
15340;SDS011;7770;52.158;5.372;2023-07-31T08:04:35;7.15;;;6.35;;
15340;SDS011;7770;52.158;5.372;2023-07-31T08:07:21;8.43;;;6.00;;
15340;SDS011;7770;52.158;5.372;2023-07-31T08:10:07;5.80;;;5.30;;
15340;SDS011;7770;52.158;5.372;2023-07-31T08:12:53;5.80;;;5.20;;
15340;SDS011;7770;52.158;5.372;2023-07-31T08:15:41;5.87;;;4.90;;
15340;SDS011;7770;52.158;5.372;2023-07-31T08:18:28;6.57;;;4.87;;
15340;SDS011;7770;52.158;5.372;2023-07-31T08:21:14;4.70;;;4.30;;
15340;SDS011;7770;52.158;5.372;2023-07-31T08:24:00;5.20;;;4.70;;
15340;SDS011;7770;52.158;5.372;2023-07-31T08:26:46;5.37;;;4.87;;
15340;SDS011;7770;52.158;5.372;2023-07-31T08:29:33;5.43;;;4.60;;
15340;SDS011;7770;52.158;5.372;2023-07-31T08:32:19;4.50;;;4.10;;
15340;SDS011;7770;52.158;5.372;2023-07-31T08:35:05;4.87;;;4.47;;
15340;SDS011;7770;52.158;5.372;2023-07-31T08:37:52;4.80;;;4.20;;
15340;SDS011;7770;52.158;5.372;2023-07-31T08:40:38;4.87;;;4.37;;
15340;SDS011;7770;52.158;5.372;2023-07-31T08:43:27;4.17;;;3.77;;
15340;SDS011;7770;52.158;5.372;2023-07-31T08:46:13;3.73;;;3.43;;
15340;SDS011;7770;52.158;5.372;2023-07-31T08:48:59;4.10;;;3.70;;
15340;SDS011;7770;52.158;5.372;2023-07-31T08:51:51;3.80;;;3.30;;
15340;SDS011;7770;52.158;5.372;2023-07-31T08:54:38;5.27;;;3.60;;
15340;SDS011;7770;52.158;5.372;2023-07-31T08:57:25;4.23;;;3.80;;
15340;SDS011;7770;52.158;5.372;2023-07-31T09:00:11;3.70;;;3.40;;
15340;SDS011;7770;52.158;5.372;2023-07-31T09:03:03;3.67;;;3.37;;
15340;SDS011;7770;52.158;5.372;2023-07-31T09:05:57;3.70;;;3.40;;
15340;SDS011;7770;52.158;5.372;2023-07-31T09:08:44;3.80;;;3.30;;
15340;SDS011;7770;52.158;5.372;2023-07-31T09:11:30;3.30;;;3.10;;
15340;SDS011;7770;52.158;5.372;2023-07-31T09:14:16;9.40;;;4.23;;
15340;SDS011;7770;52.158;5.372;2023-07-31T09:17:03;3.90;;;3.60;;
15340;SDS011;7770;52.158;5.372;2023-07-31T09:19:50;3.67;;;3.37;;
15340;SDS011;7770;52.158;5.372;2023-07-31T09:22:36;3.93;;;3.50;;
15340;SDS011;7770;52.158;5.372;2023-07-31T09:25:22;4.70;;;3.87;;
15340;SDS011;7770;52.158;5.372;2023-07-31T09:28:11;3.90;;;3.60;;
15340;SDS011;7770;52.158;5.372;2023-07-31T09:30:57;4.23;;;3.83;;
15340;SDS011;7770;52.158;5.372;2023-07-31T09:33:53;5.03;;;3.70;;
15340;SDS011;7770;52.158;5.372;2023-07-31T09:36:45;3.97;;;3.67;;
15340;SDS011;7770;52.158;5.372;2023-07-31T09:39:33;3.90;;;3.60;;
15340;SDS011;7770;52.158;5.372;2023-07-31T09:42:32;4.07;;;3.67;;
15340;SDS011;7770;52.158;5.372;2023-07-31T09:45:19;4.40;;;4.10;;
15340;SDS011;7770;52.158;5.372;2023-07-31T09:48:09;4.40;;;4.10;;
15340;SDS011;7770;52.158;5.372;2023-07-31T09:51:04;4.90;;;4.40;;
15340;SDS011;7770;52.158;5.372;2023-07-31T09:53:50;5.03;;;4.37;;
15340;SDS011;7770;52.158;5.372;2023-07-31T09:56:37;5.00;;;4.40;;
15340;SDS011;7770;52.158;5.372;2023-07-31T09:59:31;5.07;;;4.57;;
15340;SDS011;7770;52.158;5.372;2023-07-31T10:02:20;5.30;;;4.80;;
15340;SDS011;7770;52.158;5.372;2023-07-31T10:05:08;12.33;;;5.40;;
15340;SDS011;7770;52.158;5.372;2023-07-31T10:07:55;5.00;;;4.60;;
15340;SDS011;7770;52.158;5.372;2023-07-31T10:10:42;4.40;;;4.00;;
15340;SDS011;7770;52.158;5.372;2023-07-31T10:13:30;4.30;;;3.90;;
15340;SDS011;7770;52.158;5.372;2023-07-31T10:16:16;5.27;;;4.27;;
15340;SDS011;7770;52.158;5.372;2023-07-31T10:19:03;4.83;;;4.40;;
15340;SDS011;7770;52.158;5.372;2023-07-31T10:21:50;5.00;;;4.60;;
15340;SDS011;7770;52.158;5.372;2023-07-31T10:24:37;5.57;;;5.07;;
15340;SDS011;7770;52.158;5.372;2023-07-31T10:27:23;6.10;;;5.60;;
15340;SDS011;7770;52.158;5.372;2023-07-31T10:30:11;5.70;;;5.30;;
15340;SDS011;7770;52.158;5.372;2023-07-31T10:33:00;6.87;;;6.13;;
15340;SDS011;7770;52.158;5.372;2023-07-31T10:35:47;7.80;;;6.90;;
15340;SDS011;7770;52.158;5.372;2023-07-31T10:38:34;8.43;;;7.37;;
15340;SDS011;7770;52.158;5.372;2023-07-31T10:41:20;7.87;;;7.17;;
15340;SDS011;7770;52.158;5.372;2023-07-31T10:44:19;11.33;;;8.40;;
15340;SDS011;7770;52.158;5.372;2023-07-31T10:47:05;9.33;;;8.33;;
15340;SDS011;7770;52.158;5.372;2023-07-31T10:49:52;8.60;;;7.83;;
15340;SDS011;7770;52.158;5.372;2023-07-31T10:52:38;10.07;;;8.67;;
15340;SDS011;7770;52.158;5.372;2023-07-31T10:55:26;8.93;;;8.10;;
15340;SDS011;7770;52.158;5.372;2023-07-31T10:58:13;10.13;;;8.40;;
15340;SDS011;7770;52.158;5.372;2023-07-31T11:01:04;8.43;;;7.63;;
15340;SDS011;7770;52.158;5.372;2023-07-31T11:03:51;8.67;;;7.87;;
15340;SDS011;7770;52.158;5.372;2023-07-31T11:06:37;9.10;;;8.30;;
15340;SDS011;7770;52.158;5.372;2023-07-31T11:09:24;8.30;;;7.50;;
15340;SDS011;7770;52.158;5.372;2023-07-31T11:12:16;7.20;;;6.60;;
15340;SDS011;7770;52.158;5.372;2023-07-31T11:15:03;7.13;;;6.43;;
15340;SDS011;7770;52.158;5.372;2023-07-31T11:17:50;5.60;;;5.00;;
15340;SDS011;7770;52.158;5.372;2023-07-31T11:20:36;5.60;;;5.10;;
15340;SDS011;7770;52.158;5.372;2023-07-31T11:23:23;5.17;;;4.67;;
15340;SDS011;7770;52.158;5.372;2023-07-31T11:26:09;4.60;;;4.20;;
15340;SDS011;7770;52.158;5.372;2023-07-31T11:28:57;4.73;;;4.07;;
15340;SDS011;7770;52.158;5.372;2023-07-31T11:31:43;5.13;;;4.63;;
15340;SDS011;7770;52.158;5.372;2023-07-31T11:34:29;4.50;;;4.10;;
15340;SDS011;7770;52.158;5.372;2023-07-31T11:37:16;4.87;;;4.33;;
15340;SDS011;7770;52.158;5.372;2023-07-31T11:40:03;4.57;;;4.20;;
15340;SDS011;7770;52.158;5.372;2023-07-31T11:42:49;4.40;;;4.00;;
15340;SDS011;7770;52.158;5.372;2023-07-31T11:45:35;4.27;;;3.87;;
15340;SDS011;7770;52.158;5.372;2023-07-31T11:51:12;4.40;;;4.00;;
15340;SDS011;7770;52.158;5.372;2023-07-31T11:54:00;5.20;;;4.70;;
15340;SDS011;7770;52.158;5.372;2023-07-31T11:56:47;5.43;;;4.87;;
15340;SDS011;7770;52.158;5.372;2023-07-31T11:59:35;5.93;;;5.43;;
15340;SDS011;7770;52.158;5.372;2023-07-31T12:02:21;6.90;;;6.30;;
15340;SDS011;7770;52.158;5.372;2023-07-31T12:05:11;8.33;;;6.90;;
15340;SDS011;7770;52.158;5.372;2023-07-31T12:07:58;8.23;;;7.57;;
15340;SDS011;7770;52.158;5.372;2023-07-31T12:10:44;8.43;;;7.57;;
15340;SDS011;7770;52.158;5.372;2023-07-31T12:13:31;8.10;;;7.33;;
15340;SDS011;7770;52.158;5.372;2023-07-31T12:16:18;8.10;;;7.40;;
15340;SDS011;7770;52.158;5.372;2023-07-31T12:19:04;8.67;;;7.87;;
15340;SDS011;7770;52.158;5.372;2023-07-31T12:21:52;7.77;;;7.07;;
15340;SDS011;7770;52.158;5.372;2023-07-31T12:24:39;7.50;;;6.77;;
15340;SDS011;7770;52.158;5.372;2023-07-31T12:27:32;7.77;;;6.47;;
15340;SDS011;7770;52.158;5.372;2023-07-31T12:30:28;6.70;;;6.10;;
15340;SDS011;7770;52.158;5.372;2023-07-31T12:33:20;7.30;;;6.70;;
15340;SDS011;7770;52.158;5.372;2023-07-31T12:36:07;6.43;;;5.93;;
15340;SDS011;7770;52.158;5.372;2023-07-31T12:38:59;6.47;;;5.90;;
15340;SDS011;7770;52.158;5.372;2023-07-31T12:41:45;6.70;;;6.10;;
15340;SDS011;7770;52.158;5.372;2023-07-31T12:44:31;7.07;;;6.47;;
15340;SDS011;7770;52.158;5.372;2023-07-31T12:47:17;6.73;;;6.13;;
15340;SDS011;7770;52.158;5.372;2023-07-31T12:50:03;7.33;;;6.73;;
15340;SDS011;7770;52.158;5.372;2023-07-31T12:52:49;6.80;;;6.20;;
15340;SDS011;7770;52.158;5.372;2023-07-31T12:55:36;6.80;;;6.30;;
15340;SDS011;7770;52.158;5.372;2023-07-31T12:58:22;6.40;;;5.90;;
15340;SDS011;7770;52.158;5.372;2023-07-31T13:01:08;7.23;;;6.53;;
15340;SDS011;7770;52.158;5.372;2023-07-31T13:03:54;6.87;;;6.27;;
15340;SDS011;7770;52.158;5.372;2023-07-31T13:06:40;6.90;;;6.30;;
15340;SDS011;7770;52.158;5.372;2023-07-31T13:09:26;8.77;;;6.50;;
15340;SDS011;7770;52.158;5.372;2023-07-31T13:12:12;7.73;;;6.93;;
15340;SDS011;7770;52.158;5.372;2023-07-31T13:14:58;7.17;;;6.40;;
15340;SDS011;7770;52.158;5.372;2023-07-31T13:17:45;6.70;;;6.10;;
15340;SDS011;7770;52.158;5.372;2023-07-31T13:20:31;6.83;;;6.23;;
15340;SDS011;7770;52.158;5.372;2023-07-31T13:23:17;7.07;;;6.47;;
15340;SDS011;7770;52.158;5.372;2023-07-31T13:26:03;6.67;;;6.17;;
15340;SDS011;7770;52.158;5.372;2023-07-31T13:28:49;6.80;;;6.20;;
15340;SDS011;7770;52.158;5.372;2023-07-31T13:31:35;6.87;;;6.30;;
15340;SDS011;7770;52.158;5.372;2023-07-31T13:34:21;10.37;;;6.30;;
15340;SDS011;7770;52.158;5.372;2023-07-31T13:37:07;6.47;;;5.87;;
15340;SDS011;7770;52.158;5.372;2023-07-31T13:39:53;6.47;;;5.63;;
15340;SDS011;7770;52.158;5.372;2023-07-31T13:42:39;6.57;;;5.00;;
15340;SDS011;7770;52.158;5.372;2023-07-31T13:45:25;5.27;;;4.87;;
15340;SDS011;7770;52.158;5.372;2023-07-31T13:48:11;4.50;;;4.10;;
15340;SDS011;7770;52.158;5.372;2023-07-31T13:50:57;4.00;;;3.70;;
15340;SDS011;7770;52.158;5.372;2023-07-31T13:53:43;3.80;;;3.30;;
15340;SDS011;7770;52.158;5.372;2023-07-31T13:56:29;3.00;;;2.80;;
15340;SDS011;7770;52.158;5.372;2023-07-31T13:59:15;2.57;;;2.37;;
15340;SDS011;7770;52.158;5.372;2023-07-31T14:02:02;3.10;;;2.90;;
15340;SDS011;7770;52.158;5.372;2023-07-31T14:04:48;3.10;;;2.90;;
15340;SDS011;7770;52.158;5.372;2023-07-31T14:07:34;3.60;;;3.40;;
15340;SDS011;7770;52.158;5.372;2023-07-31T14:10:20;5.43;;;3.53;;
15340;SDS011;7770;52.158;5.372;2023-07-31T14:13:06;3.50;;;3.20;;
15340;SDS011;7770;52.158;5.372;2023-07-31T14:15:52;3.10;;;2.90;;
15340;SDS011;7770;52.158;5.372;2023-07-31T14:18:38;3.60;;;3.30;;
15340;SDS011;7770;52.158;5.372;2023-07-31T14:21:25;4.57;;;4.10;;
15340;SDS011;7770;52.158;5.372;2023-07-31T14:24:11;4.10;;;3.80;;
15340;SDS011;7770;52.158;5.372;2023-07-31T14:26:57;6.33;;;4.60;;
15340;SDS011;7770;52.158;5.372;2023-07-31T14:29:43;6.20;;;4.90;;
15340;SDS011;7770;52.158;5.372;2023-07-31T14:32:29;4.90;;;4.50;;
15340;SDS011;7770;52.158;5.372;2023-07-31T14:35:15;5.60;;;5.10;;
15340;SDS011;7770;52.158;5.372;2023-07-31T14:38:01;7.57;;;6.97;;
15340;SDS011;7770;52.158;5.372;2023-07-31T14:40:47;8.77;;;8.07;;
15340;SDS011;7770;52.158;5.372;2023-07-31T14:43:33;11.23;;;10.13;;
15340;SDS011;7770;52.158;5.372;2023-07-31T14:46:19;11.73;;;10.63;;
15340;SDS011;7770;52.158;5.372;2023-07-31T14:49:05;12.97;;;11.87;;
15340;SDS011;7770;52.158;5.372;2023-07-31T14:51:51;12.80;;;11.60;;
15340;SDS011;7770;52.158;5.372;2023-07-31T14:54:37;13.07;;;11.97;;
15340;SDS011;7770;52.158;5.372;2023-07-31T14:57:23;13.33;;;12.13;;
15340;SDS011;7770;52.158;5.372;2023-07-31T15:00:09;13.13;;;11.93;;
15340;SDS011;7770;52.158;5.372;2023-07-31T15:02:56;11.57;;;10.67;;
15340;SDS011;7770;52.158;5.372;2023-07-31T15:05:42;12.80;;;11.67;;
15340;SDS011;7770;52.158;5.372;2023-07-31T15:08:28;10.83;;;9.93;;
15340;SDS011;7770;52.158;5.372;2023-07-31T15:11:14;11.30;;;10.40;;
15340;SDS011;7770;52.158;5.372;2023-07-31T15:14:01;11.33;;;10.43;;
15340;SDS011;7770;52.158;5.372;2023-07-31T15:16:47;11.30;;;10.40;;
15340;SDS011;7770;52.158;5.372;2023-07-31T15:19:33;10.07;;;9.27;;
15340;SDS011;7770;52.158;5.372;2023-07-31T15:22:21;8.97;;;8.27;;
15340;SDS011;7770;52.158;5.372;2023-07-31T15:25:08;8.57;;;7.73;;
15340;SDS011;7770;52.158;5.372;2023-07-31T15:27:54;8.70;;;8.03;;
15340;SDS011;7770;52.158;5.372;2023-07-31T15:30:40;9.23;;;8.50;;
15340;SDS011;7770;52.158;5.372;2023-07-31T15:33:26;10.03;;;9.20;;
15340;SDS011;7770;52.158;5.372;2023-07-31T15:36:12;10.67;;;9.70;;
15340;SDS011;7770;52.158;5.372;2023-07-31T15:38:59;10.27;;;9.47;;
15340;SDS011;7770;52.158;5.372;2023-07-31T15:41:45;10.50;;;9.70;;
15340;SDS011;7770;52.158;5.372;2023-07-31T15:44:31;10.93;;;10.03;;
15340;SDS011;7770;52.158;5.372;2023-07-31T15:47:17;11.60;;;10.70;;
15340;SDS011;7770;52.158;5.372;2023-07-31T15:50:03;11.83;;;10.73;;
15340;SDS011;7770;52.158;5.372;2023-07-31T15:52:49;11.40;;;10.30;;
15340;SDS011;7770;52.158;5.372;2023-07-31T15:55:35;10.43;;;9.47;;
15340;SDS011;7770;52.158;5.372;2023-07-31T15:58:21;10.17;;;9.33;;
15340;SDS011;7770;52.158;5.372;2023-07-31T16:01:08;7.90;;;7.20;;
15340;SDS011;7770;52.158;5.372;2023-07-31T16:03:54;7.10;;;6.43;;
15340;SDS011;7770;52.158;5.372;2023-07-31T16:06:40;6.77;;;6.20;;
15340;SDS011;7770;52.158;5.372;2023-07-31T16:09:26;6.77;;;6.10;;
15340;SDS011;7770;52.158;5.372;2023-07-31T16:12:12;6.30;;;5.80;;
15340;SDS011;7770;52.158;5.372;2023-07-31T16:14:58;6.03;;;5.53;;
15340;SDS011;7770;52.158;5.372;2023-07-31T16:17:44;5.20;;;4.80;;
15340;SDS011;7770;52.158;5.372;2023-07-31T16:20:30;5.40;;;5.00;;
15340;SDS011;7770;52.158;5.372;2023-07-31T16:23:16;5.23;;;4.73;;
15340;SDS011;7770;52.158;5.372;2023-07-31T16:26:02;4.30;;;4.00;;
15340;SDS011;7770;52.158;5.372;2023-07-31T16:28:48;4.13;;;3.83;;
15340;SDS011;7770;52.158;5.372;2023-07-31T16:31:34;4.70;;;4.30;;
15340;SDS011;7770;52.158;5.372;2023-07-31T16:34:20;4.53;;;4.13;;
15340;SDS011;7770;52.158;5.372;2023-07-31T16:37:07;3.93;;;3.63;;
15340;SDS011;7770;52.158;5.372;2023-07-31T16:39:53;4.20;;;3.90;;
15340;SDS011;7770;52.158;5.372;2023-07-31T16:42:39;3.80;;;3.50;;
15340;SDS011;7770;52.158;5.372;2023-07-31T16:45:25;3.80;;;3.50;;
15340;SDS011;7770;52.158;5.372;2023-07-31T16:48:11;4.00;;;3.70;;
15340;SDS011;7770;52.158;5.372;2023-07-31T16:50:57;5.07;;;3.83;;
15340;SDS011;7770;52.158;5.372;2023-07-31T16:53:43;3.57;;;3.37;;
15340;SDS011;7770;52.158;5.372;2023-07-31T16:56:29;4.40;;;4.00;;